createdAt,value
2022-12-08T00:00:16.125Z,57.49
2022-12-08T00:01:16.129Z,57.49
2022-12-08T00:02:16.153Z,57.52
2022-12-08T00:03:16.239Z,57.51
2022-12-08T00:04:16.078Z,57.38
2022-12-08T00:05:16.120Z,57.33
2022-12-08T00:06:16.130Z,57.43
2022-12-08T00:07:16.077Z,57.40
2022-12-08T00:08:18.024Z,57.53
2022-12-08T00:10:47.390Z,57.47
2022-12-08T00:11:16.143Z,57.47
2022-12-08T00:12:16.132Z,57.49
2022-12-08T00:13:16.171Z,57.31
2022-12-08T00:14:16.088Z,57.31
2022-12-08T00:16:16.201Z,57.20
2022-12-08T00:17:16.097Z,57.22
2022-12-08T00:18:16.133Z,57.20
2022-12-08T00:19:16.139Z,57.07
2022-12-08T00:20:16.140Z,57.02
2022-12-08T00:21:16.172Z,56.90
2022-12-08T00:23:16.196Z,56.74
2022-12-08T00:24:16.153Z,56.70
2022-12-08T00:25:16.124Z,56.69
2022-12-08T00:26:16.160Z,56.61
2022-12-08T00:28:16.222Z,56.66
2022-12-08T00:29:17.541Z,56.66
2022-12-08T00:30:16.124Z,56.68
2022-12-08T00:31:16.268Z,56.67
2022-12-08T00:33:16.133Z,56.90
2022-12-08T00:35:16.158Z,57.02
2022-12-08T00:36:16.214Z,57.15
2022-12-08T00:37:16.150Z,57.20
2022-12-08T00:39:16.229Z,56.82
2022-12-08T00:40:16.159Z,56.82
2022-12-08T00:41:16.164Z,56.71
2022-12-08T00:42:16.154Z,56.69
2022-12-08T00:43:16.191Z,56.59
2022-12-08T00:44:16.237Z,56.55
2022-12-08T00:45:18.174Z,56.75
2022-12-08T00:46:16.310Z,56.75
2022-12-08T00:48:16.219Z,56.63
2022-12-08T00:49:16.296Z,56.61
2022-12-08T00:50:16.216Z,56.61
2022-12-08T00:51:16.225Z,56.58
2022-12-08T00:52:16.195Z,56.58
2022-12-08T00:53:16.191Z,56.49
2022-12-08T00:54:16.245Z,56.47
2022-12-08T00:55:16.188Z,56.47
2022-12-08T00:56:16.239Z,56.31
2022-12-08T00:57:16.274Z,56.48
2022-12-08T00:58:16.229Z,56.48
2022-12-08T00:59:16.224Z,56.34
2022-12-08T01:01:16.321Z,56.59
2022-12-08T01:02:16.248Z,56.58
2022-12-08T01:03:16.319Z,56.58
2022-12-08T01:04:16.318Z,56.59
2022-12-08T01:05:16.222Z,56.59
2022-12-08T01:06:16.209Z,56.59
2022-12-08T01:09:16.228Z,56.45
2022-12-08T01:10:16.220Z,56.34
2022-12-08T01:13:16.272Z,56.47
2022-12-08T01:14:16.255Z,56.55
2022-12-08T01:15:16.275Z,56.60
2022-12-08T01:16:16.311Z,56.67
2022-12-08T01:17:16.324Z,56.54
2022-12-08T01:22:18.445Z,56.36
2022-12-08T01:23:16.254Z,56.36
2022-12-08T01:24:16.307Z,56.37
2022-12-08T01:25:16.300Z,56.34
2022-12-08T01:26:16.260Z,56.23
2022-12-08T01:27:16.269Z,56.06
2022-12-08T01:28:16.291Z,56.05
2022-12-08T01:29:16.310Z,56.20
2022-12-08T01:30:16.313Z,56.35
2022-12-08T01:32:16.324Z,56.37
2022-12-08T01:34:16.307Z,56.49
2022-12-08T01:35:16.332Z,56.26
2022-12-08T01:36:16.291Z,56.26
2022-12-08T01:38:16.325Z,56.24
2022-12-08T01:39:16.289Z,56.18
2022-12-08T01:40:16.390Z,56.26
2022-12-08T01:41:16.295Z,56.26
2022-12-08T01:42:16.341Z,56.17
2022-12-08T01:43:16.364Z,56.40
2022-12-08T01:45:16.379Z,56.90
2022-12-08T01:46:16.384Z,56.90
2022-12-08T01:47:16.349Z,56.94
2022-12-08T01:48:16.446Z,56.81
2022-12-08T01:49:16.346Z,56.70
2022-12-08T01:50:16.415Z,56.54
2022-12-08T01:51:16.383Z,56.54
2022-12-08T01:52:16.338Z,56.64
2022-12-08T01:55:16.374Z,56.18
2022-12-08T01:57:16.386Z,55.86
2022-12-08T01:58:16.377Z,56.16
2022-12-08T02:00:16.383Z,56.22
2022-12-08T02:01:16.404Z,56.25
2022-12-08T02:02:16.495Z,56.30
2022-12-08T02:03:16.408Z,56.30
2022-12-08T02:06:16.387Z,55.91
2022-12-08T02:07:16.393Z,55.91
2022-12-08T02:08:16.620Z,55.91
2022-12-08T02:09:16.416Z,56.01
2022-12-08T02:10:16.404Z,56.01
2022-12-08T02:11:16.454Z,55.98
2022-12-08T02:12:16.391Z,56.00
2022-12-08T02:13:16.434Z,56.00
2022-12-08T02:14:16.382Z,56.00
2022-12-08T02:15:16.424Z,55.97
2022-12-08T02:16:16.560Z,56.74
2022-12-08T02:17:16.424Z,56.74
2022-12-08T02:18:16.383Z,56.80
2022-12-08T02:19:31.674Z,56.73
2022-12-08T02:20:16.435Z,56.91
2022-12-08T02:21:16.459Z,56.99
2022-12-08T02:22:16.421Z,57.07
2022-12-08T02:23:16.401Z,56.98
2022-12-08T02:24:16.407Z,56.83
2022-12-08T02:25:16.455Z,56.81
2022-12-08T02:26:16.485Z,56.65
2022-12-08T02:27:16.458Z,56.65
2022-12-08T02:28:16.453Z,56.42
2022-12-08T02:29:16.493Z,56.79
2022-12-08T02:30:16.475Z,56.79
2022-12-08T02:31:16.512Z,56.60
2022-12-08T02:32:16.469Z,56.55
2022-12-08T02:33:16.462Z,56.82
2022-12-08T02:34:16.496Z,56.95
2022-12-08T02:35:16.469Z,56.87
2022-12-08T02:36:18.839Z,56.89
2022-12-08T02:37:16.510Z,56.89
2022-12-08T02:38:16.453Z,56.88
2022-12-08T02:39:16.485Z,56.79
2022-12-08T02:40:16.485Z,56.79
2022-12-08T02:41:16.452Z,56.54
2022-12-08T02:42:16.500Z,56.83
2022-12-08T02:43:16.493Z,56.83
2022-12-08T02:44:16.483Z,56.57
2022-12-08T02:45:16.506Z,56.52
2022-12-08T02:46:16.556Z,56.47
2022-12-08T02:47:16.484Z,56.50
2022-12-08T02:48:16.461Z,56.54
2022-12-08T02:49:16.465Z,56.55
2022-12-08T02:50:16.485Z,56.29
2022-12-08T02:51:16.461Z,56.18
2022-12-08T02:52:16.525Z,56.16
2022-12-08T02:53:16.498Z,56.16
2022-12-08T02:54:16.543Z,56.18
2022-12-08T02:55:16.471Z,55.81
2022-12-08T02:56:16.495Z,56.02
2022-12-08T02:57:16.532Z,56.06
2022-12-08T02:59:16.573Z,55.90
2022-12-08T03:00:16.494Z,55.93
2022-12-08T03:01:16.585Z,55.85
2022-12-08T03:02:16.569Z,55.64
2022-12-08T03:03:16.491Z,55.64
2022-12-08T03:04:16.551Z,55.75
2022-12-08T03:05:16.530Z,55.74
2022-12-08T03:07:16.579Z,55.42
2022-12-08T03:08:16.731Z,55.32
2022-12-08T03:10:16.526Z,55.20
2022-12-08T03:12:16.603Z,55.19
2022-12-08T03:13:19.018Z,55.03
2022-12-08T03:14:16.596Z,55.03
2022-12-08T03:15:16.533Z,54.91
2022-12-08T03:16:16.597Z,55.03
2022-12-08T03:17:16.591Z,54.98
2022-12-08T03:18:16.524Z,55.06
2022-12-08T03:19:16.527Z,55.04
2022-12-08T03:20:16.588Z,55.04
2022-12-08T03:21:16.563Z,54.78
2022-12-08T03:22:16.631Z,54.77
2022-12-08T03:23:16.580Z,54.77
2022-12-08T03:24:16.587Z,54.82
2022-12-08T03:25:16.625Z,54.72
2022-12-08T03:26:16.546Z,54.72
2022-12-08T03:28:16.599Z,54.79
2022-12-08T03:29:16.586Z,54.93
2022-12-08T03:30:16.595Z,55.10
2022-12-08T03:32:16.615Z,55.09
2022-12-08T03:33:16.562Z,54.94
2022-12-08T03:34:16.581Z,55.01
2022-12-08T03:35:16.620Z,54.86
2022-12-08T03:36:16.571Z,54.76
2022-12-08T03:38:16.602Z,54.93
2022-12-08T03:39:16.634Z,54.95
2022-12-08T03:40:16.607Z,55.06
2022-12-08T03:42:16.674Z,55.09
2022-12-08T03:43:16.629Z,55.09
2022-12-08T03:44:16.603Z,54.94
2022-12-08T03:45:16.645Z,54.90
2022-12-08T03:46:16.715Z,54.90
2022-12-08T03:47:16.665Z,54.77
2022-12-08T03:50:19.310Z,54.83
2022-12-08T03:51:16.641Z,54.83
2022-12-08T03:52:16.657Z,55.19
2022-12-08T03:53:16.607Z,55.19
2022-12-08T03:54:16.620Z,55.29
2022-12-08T03:55:16.663Z,55.24
2022-12-08T03:56:16.658Z,55.09
2022-12-08T03:57:16.662Z,55.08
2022-12-08T03:58:16.651Z,54.92
2022-12-08T03:59:16.663Z,54.90
2022-12-08T04:00:16.662Z,54.74
2022-12-08T04:01:16.667Z,54.66
2022-12-08T04:02:16.748Z,54.66
2022-12-08T04:03:16.793Z,54.91
2022-12-08T04:04:16.672Z,54.99
2022-12-08T04:07:16.657Z,55.18
2022-12-08T04:08:16.775Z,55.13
2022-12-08T04:09:16.665Z,55.15
2022-12-08T04:10:16.730Z,54.96
2022-12-08T04:11:16.669Z,54.96
2022-12-08T04:12:16.720Z,54.74
2022-12-08T04:13:16.723Z,54.77
2022-12-08T04:14:16.671Z,54.81
2022-12-08T04:15:16.738Z,55.32
2022-12-08T04:16:16.797Z,55.32
2022-12-08T04:17:16.709Z,55.59
2022-12-08T04:18:16.766Z,55.65
2022-12-08T04:19:16.709Z,55.72
2022-12-08T04:20:16.683Z,55.58
2022-12-08T04:21:16.684Z,55.41
2022-12-08T04:22:16.690Z,55.20
2022-12-08T04:23:16.765Z,55.06
2022-12-08T04:24:16.719Z,54.94
2022-12-08T04:25:16.716Z,54.97
2022-12-08T04:26:16.742Z,55.20
2022-12-08T04:27:19.490Z,55.24
2022-12-08T04:28:16.767Z,55.24
2022-12-08T04:29:16.734Z,55.21
2022-12-08T04:30:16.753Z,55.11
2022-12-08T04:31:16.796Z,54.97
2022-12-08T04:32:16.730Z,54.76
2022-12-08T04:33:16.723Z,54.76
2022-12-08T04:34:16.703Z,54.65
2022-12-08T04:35:16.749Z,54.66
2022-12-08T04:36:16.810Z,54.68
2022-12-08T04:37:16.744Z,54.56
2022-12-08T04:38:16.773Z,54.54
2022-12-08T04:40:16.750Z,54.58
2022-12-08T04:42:16.735Z,54.60
2022-12-08T04:43:16.745Z,54.56
2022-12-08T04:44:16.733Z,54.48
2022-12-08T04:45:16.750Z,54.56
2022-12-08T04:47:16.880Z,54.65
2022-12-08T04:48:16.749Z,54.70
2022-12-08T04:51:16.795Z,54.72
2022-12-08T04:52:16.789Z,54.74
2022-12-08T04:53:16.755Z,54.75
2022-12-08T04:56:16.779Z,54.39
2022-12-08T04:57:16.827Z,54.50
2022-12-08T04:59:16.842Z,54.51
2022-12-08T05:00:16.812Z,54.48
2022-12-08T05:01:16.882Z,54.59
2022-12-08T05:02:16.998Z,54.73
2022-12-08T05:03:16.828Z,54.71
2022-12-08T05:04:19.738Z,54.61
2022-12-08T05:05:16.796Z,54.61
2022-12-08T05:06:16.783Z,54.77
2022-12-08T05:07:16.840Z,54.70
2022-12-08T05:08:16.946Z,54.77
2022-12-08T05:09:16.866Z,54.84
2022-12-08T05:13:16.857Z,54.91
2022-12-08T05:14:16.886Z,54.80
2022-12-08T05:15:16.805Z,54.72
2022-12-08T05:16:16.896Z,54.71
2022-12-08T05:17:16.892Z,54.53
2022-12-08T05:19:16.823Z,54.64
2022-12-08T05:20:16.858Z,54.61
2022-12-08T05:21:16.820Z,54.74
2022-12-08T05:24:16.880Z,54.55
2022-12-08T05:25:16.921Z,54.69
2022-12-08T05:26:16.828Z,54.69
2022-12-08T05:27:16.917Z,54.55
2022-12-08T05:28:40.846Z,54.55
2022-12-08T05:29:16.883Z,54.55
2022-12-08T05:30:16.899Z,54.55
2022-12-08T05:31:16.945Z,54.55
2022-12-08T05:34:16.851Z,54.55
2022-12-08T05:35:16.943Z,54.56
2022-12-08T05:37:16.873Z,54.54
2022-12-08T05:38:16.869Z,54.47
2022-12-08T05:41:19.971Z,54.56
2022-12-08T05:42:21.729Z,54.56
2022-12-08T05:43:16.920Z,54.67
2022-12-08T05:44:16.912Z,54.87
2022-12-08T05:46:16.964Z,55.18
2022-12-08T05:47:16.947Z,55.32
2022-12-08T05:49:16.942Z,55.46
2022-12-08T05:50:16.940Z,55.34
2022-12-08T05:51:16.946Z,55.34
2022-12-08T05:53:16.916Z,55.19
2022-12-08T05:54:16.940Z,55.04
2022-12-08T05:56:16.953Z,55.16
2022-12-08T05:57:16.959Z,55.16
2022-12-08T05:58:16.996Z,55.14
2022-12-08T05:59:16.916Z,55.07
2022-12-08T06:00:16.922Z,55.05
2022-12-08T06:01:16.960Z,55.15
2022-12-08T06:02:17.045Z,55.21
2022-12-08T06:03:17.110Z,55.18
2022-12-08T06:04:16.967Z,55.35
2022-12-08T06:05:16.946Z,55.27
2022-12-08T06:06:16.928Z,55.27
2022-12-08T06:07:16.933Z,55.23
2022-12-08T06:08:17.017Z,55.22
2022-12-08T06:09:16.997Z,55.22
2022-12-08T06:12:16.991Z,55.24
2022-12-08T06:13:16.986Z,55.22
2022-12-08T06:14:17.008Z,55.22
2022-12-08T06:15:16.976Z,55.19
2022-12-08T06:16:17.089Z,55.19
2022-12-08T06:17:17.007Z,54.97
2022-12-08T06:18:20.260Z,54.92
2022-12-08T06:19:16.966Z,54.92
2022-12-08T06:21:17.073Z,55.38
2022-12-08T06:24:16.981Z,55.49
2022-12-08T06:25:17.031Z,55.49
2022-12-08T06:26:17.049Z,55.53
2022-12-08T06:27:17.043Z,55.53
2022-12-08T06:28:17.058Z,55.41
2022-12-08T06:29:17.005Z,55.06
2022-12-08T06:30:17.009Z,55.25
2022-12-08T06:31:17.184Z,55.29
2022-12-08T06:32:17.149Z,55.29
2022-12-08T06:33:17.119Z,55.49
2022-12-08T06:34:17.003Z,55.49
2022-12-08T06:35:17.037Z,55.53
2022-12-08T06:36:17.052Z,55.75
2022-12-08T06:38:17.053Z,55.68
2022-12-08T06:39:17.077Z,55.69
2022-12-08T06:41:17.096Z,55.87
2022-12-08T06:42:17.026Z,55.83
2022-12-08T06:43:17.105Z,55.81
2022-12-08T06:44:17.061Z,55.81
2022-12-08T06:49:17.056Z,55.61
2022-12-08T06:50:17.063Z,55.61
2022-12-08T06:51:17.078Z,55.67
2022-12-08T06:52:17.090Z,55.74
2022-12-08T06:53:17.098Z,55.74
2022-12-08T06:54:17.123Z,55.99
2022-12-08T06:55:42.685Z,56.15
2022-12-08T06:56:17.063Z,56.26
2022-12-08T06:57:17.076Z,56.26
2022-12-08T06:58:17.066Z,56.41
2022-12-08T06:59:17.099Z,56.53
2022-12-08T07:00:17.096Z,56.29
2022-12-08T07:01:17.141Z,56.27
2022-12-08T07:02:17.165Z,56.23
2022-12-08T07:03:17.120Z,56.11
2022-12-08T07:04:17.151Z,56.29
2022-12-08T07:05:17.104Z,56.29
2022-12-08T07:06:17.086Z,56.50
2022-12-08T07:07:17.113Z,56.52
2022-12-08T07:08:17.164Z,56.40
2022-12-08T07:09:17.139Z,56.29
2022-12-08T07:10:17.089Z,56.29
2022-12-08T07:11:21.398Z,56.29
2022-12-08T07:12:17.087Z,56.29
2022-12-08T07:13:17.207Z,56.49
2022-12-08T07:14:17.177Z,56.44
2022-12-08T07:15:17.118Z,56.45
2022-12-08T07:16:17.200Z,56.32
2022-12-08T07:17:17.179Z,56.34
2022-12-08T07:18:17.159Z,56.27
2022-12-08T07:19:17.206Z,56.27
2022-12-08T07:20:17.156Z,56.27
2022-12-08T07:21:17.179Z,55.99
2022-12-08T07:22:17.180Z,55.99
2022-12-08T07:23:17.163Z,56.62
2022-12-08T07:24:17.174Z,56.40
2022-12-08T07:25:17.116Z,56.40
2022-12-08T07:26:17.125Z,56.53
2022-12-08T07:27:17.138Z,56.64
2022-12-08T07:28:17.189Z,56.50
2022-12-08T07:29:21.642Z,56.47
2022-12-08T07:30:17.169Z,56.39
2022-12-08T07:31:17.264Z,56.39
2022-12-08T07:32:20.708Z,55.98
2022-12-08T07:33:17.187Z,55.88
2022-12-08T07:34:17.219Z,55.71
2022-12-08T07:35:17.189Z,55.71
2022-12-08T07:36:17.162Z,55.68
2022-12-08T07:37:17.195Z,55.51
2022-12-08T07:38:17.144Z,55.51
2022-12-08T07:39:17.181Z,55.40
2022-12-08T07:40:17.205Z,55.40
2022-12-08T07:41:17.244Z,55.42
2022-12-08T07:42:17.240Z,55.26
2022-12-08T07:43:17.163Z,55.21
2022-12-08T07:45:17.183Z,55.15
2022-12-08T07:46:17.295Z,55.15
2022-12-08T07:47:17.232Z,55.01
2022-12-08T07:48:17.177Z,55.01
2022-12-08T07:49:17.179Z,54.76
2022-12-08T07:50:17.253Z,54.73
2022-12-08T07:51:17.206Z,54.75
2022-12-08T07:52:17.259Z,54.89
2022-12-08T07:55:17.287Z,54.69
2022-12-08T07:56:17.236Z,54.74
2022-12-08T07:57:17.235Z,54.68
2022-12-08T07:58:17.224Z,54.68
2022-12-08T07:59:17.252Z,54.67
2022-12-08T08:00:17.537Z,54.60
2022-12-08T08:01:17.332Z,54.50
2022-12-08T08:02:23.622Z,54.48
2022-12-08T08:03:17.283Z,54.38
2022-12-08T08:04:17.299Z,54.18
2022-12-08T08:05:17.287Z,54.14
2022-12-08T08:06:17.260Z,54.14
2022-12-08T08:08:17.350Z,54.28
2022-12-08T08:09:20.894Z,54.26
2022-12-08T08:10:17.252Z,54.26
2022-12-08T08:13:17.285Z,54.17
2022-12-08T08:14:17.281Z,54.17
2022-12-08T08:15:17.334Z,53.93
2022-12-08T08:16:17.462Z,53.93
2022-12-08T08:17:17.360Z,54.02
2022-12-08T08:18:17.305Z,53.70
2022-12-08T08:19:17.313Z,53.90
2022-12-08T08:20:17.308Z,53.81
2022-12-08T08:22:17.278Z,53.83
2022-12-08T08:24:17.346Z,53.90
2022-12-08T08:25:17.288Z,53.90
2022-12-08T08:26:17.323Z,53.87
2022-12-08T08:27:17.284Z,53.87
2022-12-08T08:28:17.309Z,53.97
2022-12-08T08:29:17.337Z,53.97
2022-12-08T08:30:20.803Z,54.04
2022-12-08T08:31:17.379Z,54.08
2022-12-08T08:32:17.312Z,54.08
2022-12-08T08:34:17.322Z,54.39
2022-12-08T08:35:17.328Z,54.46
2022-12-08T08:36:17.436Z,54.46
2022-12-08T08:37:17.393Z,54.46
2022-12-08T08:38:17.335Z,54.61
2022-12-08T08:40:17.360Z,54.66
2022-12-08T08:41:17.363Z,54.72
2022-12-08T08:42:17.395Z,54.56
2022-12-08T08:43:17.400Z,54.37
2022-12-08T08:44:17.366Z,54.46
2022-12-08T08:45:17.375Z,54.39
2022-12-08T08:46:21.185Z,54.46
2022-12-08T08:47:17.367Z,54.46
2022-12-08T08:48:17.365Z,54.36
2022-12-08T08:49:17.346Z,54.26
2022-12-08T08:50:17.372Z,53.92
2022-12-08T08:51:17.411Z,53.62
2022-12-08T08:52:17.351Z,53.93
2022-12-08T08:54:17.416Z,54.24
2022-12-08T08:55:17.337Z,54.24
2022-12-08T08:56:17.449Z,54.07
2022-12-08T08:57:20.731Z,54.07
2022-12-08T08:58:17.389Z,54.01
2022-12-08T08:59:17.405Z,53.42
2022-12-08T09:01:17.457Z,53.34
2022-12-08T09:02:17.500Z,53.34
2022-12-08T09:03:17.408Z,53.21
2022-12-08T09:04:17.513Z,53.03
2022-12-08T09:05:17.423Z,52.74
2022-12-08T09:06:17.462Z,52.70
2022-12-08T09:07:17.389Z,52.29
2022-12-08T09:08:17.512Z,52.29
2022-12-08T09:09:17.410Z,52.11
2022-12-08T09:10:17.365Z,52.11
2022-12-08T09:11:17.411Z,51.76
2022-12-08T09:12:17.399Z,51.76
2022-12-08T09:13:17.388Z,51.75
2022-12-08T09:14:17.443Z,51.41
2022-12-08T09:15:17.449Z,51.41
2022-12-08T09:16:17.528Z,50.73
2022-12-08T09:17:17.425Z,50.73
2022-12-08T09:18:17.419Z,50.50
2022-12-08T09:19:17.392Z,50.48
2022-12-08T09:20:17.412Z,50.09
2022-12-08T09:21:17.462Z,50.07
2022-12-08T09:22:17.433Z,50.07
2022-12-08T09:24:17.448Z,50.42
2022-12-08T09:25:17.406Z,50.45
2022-12-08T09:26:17.547Z,50.08
2022-12-08T09:27:17.418Z,50.31
2022-12-08T09:28:17.421Z,50.29
2022-12-08T09:29:17.480Z,50.82
2022-12-08T09:31:17.561Z,50.32
2022-12-08T09:32:17.488Z,50.55
2022-12-08T09:33:17.474Z,50.68
2022-12-08T09:35:17.451Z,50.29
2022-12-08T09:36:17.491Z,50.29
2022-12-08T09:37:17.483Z,50.86
2022-12-08T09:38:17.463Z,50.86
2022-12-08T09:39:17.484Z,51.24
2022-12-08T09:40:17.455Z,51.24
2022-12-08T09:41:17.517Z,51.11
2022-12-08T09:42:17.552Z,51.16
2022-12-08T09:43:17.507Z,50.82
2022-12-08T09:44:17.555Z,50.47
2022-12-08T09:45:17.471Z,49.99
2022-12-08T09:47:17.543Z,50.10
2022-12-08T09:48:17.481Z,50.10
2022-12-08T09:49:17.544Z,49.50
2022-12-08T09:50:17.508Z,49.50
2022-12-08T09:51:17.484Z,49.49
2022-12-08T09:52:17.521Z,49.23
2022-12-08T09:53:17.498Z,49.32
2022-12-08T09:54:17.554Z,49.46
2022-12-08T09:55:17.522Z,49.46
2022-12-08T09:56:17.540Z,49.30
2022-12-08T09:57:17.521Z,49.15
2022-12-08T09:58:17.534Z,49.15
2022-12-08T09:59:17.534Z,49.17
2022-12-08T10:00:21.658Z,49.16
2022-12-08T10:01:17.565Z,49.16
2022-12-08T10:02:17.601Z,48.96
2022-12-08T10:03:17.524Z,48.96
2022-12-08T10:04:17.624Z,48.81
2022-12-08T10:05:17.624Z,48.91
2022-12-08T10:06:17.560Z,48.79
2022-12-08T10:09:22.676Z,48.49
2022-12-08T10:10:17.573Z,48.59
2022-12-08T10:11:17.572Z,48.43
2022-12-08T10:12:17.573Z,48.56
2022-12-08T10:13:17.591Z,48.87
2022-12-08T10:14:17.606Z,48.99
2022-12-08T10:15:17.576Z,48.99
2022-12-08T10:18:17.604Z,49.27
2022-12-08T10:19:17.613Z,49.06
2022-12-08T10:20:17.550Z,49.06
2022-12-08T10:21:17.560Z,48.96
2022-12-08T10:22:17.644Z,49.46
2022-12-08T10:23:17.552Z,49.46
2022-12-08T10:24:17.677Z,49.37
2022-12-08T10:25:17.574Z,49.49
2022-12-08T10:27:17.630Z,49.73
2022-12-08T10:28:17.574Z,49.61
2022-12-08T10:29:17.621Z,49.38
2022-12-08T10:32:17.640Z,49.53
2022-12-08T10:33:17.630Z,49.53
2022-12-08T10:34:17.670Z,49.55
2022-12-08T10:35:17.592Z,49.61
2022-12-08T10:36:17.636Z,49.42
2022-12-08T10:37:21.792Z,49.72
2022-12-08T10:38:17.627Z,49.72
2022-12-08T10:39:17.625Z,49.80
2022-12-08T10:40:17.611Z,49.78
2022-12-08T10:41:17.643Z,49.97
2022-12-08T10:43:17.686Z,50.12
2022-12-08T10:44:17.671Z,50.27
2022-12-08T10:45:17.642Z,50.35
2022-12-08T10:46:17.710Z,50.35
2022-12-08T10:47:17.661Z,50.29
2022-12-08T10:48:18.912Z,50.24
2022-12-08T10:50:17.696Z,50.09
2022-12-08T10:51:17.655Z,50.15
2022-12-08T10:52:17.700Z,50.24
2022-12-08T10:53:17.645Z,50.24
2022-12-08T10:55:17.715Z,50.15
2022-12-08T10:56:17.694Z,50.19
2022-12-08T10:57:17.767Z,50.37
2022-12-08T10:59:17.682Z,50.19
2022-12-08T11:00:18.139Z,50.39
2022-12-08T11:01:17.830Z,50.55
2022-12-08T11:02:17.837Z,50.74
2022-12-08T11:03:17.668Z,51.19
2022-12-08T11:04:17.669Z,51.46
2022-12-08T11:05:17.653Z,51.46
2022-12-08T11:06:17.695Z,51.64
2022-12-08T11:07:17.706Z,51.64
2022-12-08T11:08:17.743Z,51.74
2022-12-08T11:09:17.711Z,51.76
2022-12-08T11:10:17.698Z,51.55
2022-12-08T11:12:17.879Z,51.61
2022-12-08T11:13:17.692Z,51.61
2022-12-08T11:14:21.998Z,51.37
2022-12-08T11:15:17.721Z,51.23
2022-12-08T11:16:17.738Z,51.23
2022-12-08T11:17:17.910Z,51.03
2022-12-08T11:19:17.712Z,50.69
2022-12-08T11:20:17.795Z,51.34
2022-12-08T11:21:17.716Z,51.11
2022-12-08T11:22:17.717Z,51.51
2022-12-08T11:23:17.752Z,51.94
2022-12-08T11:24:17.745Z,51.73
2022-12-08T11:25:17.739Z,51.79
2022-12-08T11:26:18.736Z,51.64
2022-12-08T11:27:17.768Z,51.64
2022-12-08T11:28:17.789Z,51.45
2022-12-08T11:29:17.769Z,51.46
2022-12-08T11:30:18.427Z,51.45
2022-12-08T11:31:17.795Z,51.60
2022-12-08T11:32:17.769Z,51.55
2022-12-08T11:33:17.810Z,51.35
2022-12-08T11:34:17.791Z,51.48
2022-12-08T11:35:17.781Z,51.45
2022-12-08T11:36:17.765Z,51.45
2022-12-08T11:37:17.771Z,51.36
2022-12-08T11:38:20.981Z,51.19
2022-12-08T11:39:17.790Z,51.19
2022-12-08T11:40:17.801Z,50.88
2022-12-08T11:41:17.797Z,50.63
2022-12-08T11:42:17.799Z,50.63
2022-12-08T11:43:17.823Z,50.22
2022-12-08T11:44:17.805Z,49.98
2022-12-08T11:45:17.819Z,49.76
2022-12-08T11:46:17.836Z,49.76
2022-12-08T11:47:17.802Z,49.53
2022-12-08T11:48:17.822Z,49.24
2022-12-08T11:49:17.771Z,49.24
2022-12-08T11:50:19.551Z,49.36
2022-12-08T11:51:22.237Z,49.30
2022-12-08T11:52:17.772Z,49.32
2022-12-08T11:53:17.808Z,49.13
2022-12-08T11:54:17.810Z,49.23
2022-12-08T11:55:17.874Z,49.56
2022-12-08T11:57:17.827Z,49.73
2022-12-08T12:00:18.093Z,49.25
2022-12-08T12:01:17.801Z,49.25
2022-12-08T12:02:17.896Z,49.17
2022-12-08T12:03:17.981Z,49.12
2022-12-08T12:04:17.807Z,49.12
2022-12-08T12:05:33.245Z,49.57
2022-12-08T12:06:37.614Z,49.52
2022-12-08T12:07:23.059Z,49.52
2022-12-08T12:09:17.820Z,49.61
2022-12-08T12:10:17.866Z,49.49
2022-12-08T12:11:17.835Z,49.49
2022-12-08T12:12:17.849Z,49.21
2022-12-08T12:13:17.858Z,49.61
2022-12-08T12:14:17.830Z,49.61
2022-12-08T12:15:17.828Z,49.68
2022-12-08T12:16:17.877Z,49.61
2022-12-08T12:17:17.844Z,49.61
2022-12-08T12:18:17.918Z,49.45
2022-12-08T12:19:17.840Z,49.49
2022-12-08T12:20:17.881Z,49.49
2022-12-08T12:21:17.905Z,49.23
2022-12-08T12:22:17.860Z,49.23
2022-12-08T12:23:17.859Z,49.29
2022-12-08T12:24:22.326Z,49.13
2022-12-08T12:27:17.921Z,48.66
2022-12-08T12:28:22.472Z,48.76
2022-12-08T12:29:17.931Z,48.43
2022-12-08T12:30:17.889Z,48.46
2022-12-08T12:32:17.918Z,48.74
2022-12-08T12:33:17.909Z,48.74
2022-12-08T12:34:17.963Z,48.33
2022-12-08T12:35:18.106Z,48.33
2022-12-08T12:36:17.938Z,48.27
2022-12-08T12:37:17.886Z,48.27
2022-12-08T12:38:17.886Z,48.27
2022-12-08T12:39:17.927Z,48.00
2022-12-08T12:40:17.951Z,48.10
2022-12-08T12:41:22.421Z,48.01
2022-12-08T12:42:17.960Z,47.82
2022-12-08T12:43:17.928Z,47.82
2022-12-08T12:44:17.980Z,47.93
2022-12-08T12:45:17.948Z,47.63
2022-12-08T12:46:17.988Z,47.63
2022-12-08T12:48:17.914Z,47.80
2022-12-08T12:49:17.934Z,47.61
2022-12-08T12:50:17.906Z,47.61
2022-12-08T12:52:17.945Z,47.28
2022-12-08T12:53:17.922Z,47.36
2022-12-08T12:54:17.968Z,47.07
2022-12-08T12:55:17.989Z,47.07
2022-12-08T12:56:17.961Z,47.35
2022-12-08T12:58:18.078Z,47.12
2022-12-08T13:00:17.930Z,47.26
2022-12-08T13:01:18.077Z,47.07
2022-12-08T13:02:18.067Z,47.07
2022-12-08T13:03:17.940Z,46.92
2022-12-08T13:04:18.048Z,46.77
2022-12-08T13:05:22.730Z,46.79
2022-12-08T13:06:18.016Z,46.80
2022-12-08T13:07:17.970Z,47.21
2022-12-08T13:08:18.110Z,47.21
2022-12-08T13:09:18.047Z,47.49
2022-12-08T13:10:17.999Z,47.49
2022-12-08T13:11:18.052Z,47.40
2022-12-08T13:12:17.979Z,47.40
2022-12-08T13:13:18.012Z,47.25
2022-12-08T13:14:18.060Z,46.91
2022-12-08T13:16:19.620Z,46.39
2022-12-08T13:17:18.082Z,46.55
2022-12-08T13:18:18.018Z,46.55
2022-12-08T13:19:18.079Z,46.42
2022-12-08T13:20:17.988Z,46.43
2022-12-08T13:21:18.018Z,46.48
2022-12-08T13:23:18.042Z,46.53
2022-12-08T13:24:18.097Z,46.21
2022-12-08T13:25:18.048Z,46.32
2022-12-08T13:26:18.029Z,46.36
2022-12-08T13:27:18.002Z,46.45
2022-12-08T13:28:18.036Z,46.45
2022-12-08T13:30:18.032Z,46.61
2022-12-08T13:31:18.183Z,46.37
2022-12-08T13:32:18.001Z,46.37
2022-12-08T13:33:18.946Z,46.30
2022-12-08T13:34:18.111Z,46.44
2022-12-08T13:35:18.018Z,46.44
2022-12-08T13:36:18.117Z,46.70
2022-12-08T13:37:18.064Z,46.70
2022-12-08T13:38:18.071Z,46.69
2022-12-08T13:39:18.108Z,46.74
2022-12-08T13:40:18.048Z,46.74
2022-12-08T13:41:18.057Z,46.76
2022-12-08T13:42:22.916Z,46.84
2022-12-08T13:45:17.885Z,46.68
2022-12-08T13:45:33.435Z,46.71
2022-12-08T13:48:35.134Z,46.83
2022-12-08T13:55:12.233Z,46.72
2022-12-08T13:56:37.481Z,46.72
2022-12-08T13:57:01.272Z,46.72
2022-12-08T13:58:18.187Z,46.78
2022-12-08T14:02:18.266Z,46.65
2022-12-08T14:03:18.145Z,46.65
2022-12-08T14:04:54.498Z,46.79
2022-12-08T14:05:20.384Z,46.79
2022-12-08T14:06:18.428Z,46.70
2022-12-08T14:07:18.181Z,46.58
2022-12-08T14:08:25.251Z,46.50
2022-12-08T14:09:18.262Z,46.71
2022-12-08T14:10:18.154Z,46.75
2022-12-08T14:11:18.160Z,46.80
2022-12-08T14:12:18.113Z,46.80
2022-12-08T14:13:18.152Z,46.98
2022-12-08T14:14:32.665Z,47.05
2022-12-08T14:15:18.518Z,47.05
2022-12-08T14:16:18.280Z,47.13
2022-12-08T14:17:18.177Z,46.99
2022-12-08T14:18:18.187Z,46.99
2022-12-08T14:19:23.177Z,46.87
2022-12-08T14:21:21.569Z,46.96
2022-12-08T14:22:18.131Z,46.66
2022-12-08T14:23:18.169Z,46.73
2022-12-08T14:24:18.174Z,46.98
2022-12-08T14:25:18.236Z,47.05
2022-12-08T14:26:18.175Z,47.21
2022-12-08T14:27:18.230Z,47.28
2022-12-08T14:28:18.202Z,47.28
2022-12-08T14:30:18.206Z,47.21
2022-12-08T14:32:18.235Z,47.34
2022-12-08T14:33:18.178Z,47.34
2022-12-08T14:34:18.182Z,47.42
2022-12-08T14:35:18.248Z,47.32
2022-12-08T14:36:18.209Z,47.32
2022-12-08T14:37:18.205Z,47.19
2022-12-08T14:38:18.328Z,47.18
2022-12-08T14:39:18.227Z,47.18
2022-12-08T14:40:22.732Z,47.04
2022-12-08T14:41:18.220Z,47.04
2022-12-08T14:42:18.194Z,47.22
2022-12-08T14:43:18.255Z,47.22
2022-12-08T14:44:18.231Z,47.39
2022-12-08T14:45:18.235Z,47.49
2022-12-08T14:47:18.244Z,47.42
2022-12-08T14:48:18.271Z,47.49
2022-12-08T14:49:18.215Z,47.49
2022-12-08T14:51:18.261Z,47.84
2022-12-08T14:52:18.248Z,47.84
2022-12-08T14:53:18.408Z,47.81
2022-12-08T14:54:18.289Z,47.90
2022-12-08T14:56:18.274Z,48.04
2022-12-08T14:57:18.272Z,48.04
2022-12-08T14:59:18.274Z,48.20
2022-12-08T15:00:18.300Z,48.32
2022-12-08T15:01:18.352Z,48.25
2022-12-08T15:03:18.297Z,48.25
2022-12-08T15:05:18.476Z,48.36
2022-12-08T15:06:18.270Z,48.34
2022-12-08T15:07:18.292Z,48.47
2022-12-08T15:08:18.424Z,48.56
2022-12-08T15:09:18.288Z,48.56